Terminal Aerodrome Forecast
Issued by NWS Paducah, KY

Home | Current Version | Previous Version | Text Only | Print | Product List | Glossary On
Versions: 1 2 3 4 5 6 7 8 9 10 11 12 13 14 15 16 17 18 19 20 21 22
000
FTUS43 KPAH 021729
TAFPAH
TAF
KPAH 021729Z 0218/0318 06010KT P6SM BKN250
     FM030000 07005KT P6SM BKN040
     FM030600 11005KT P6SM OVC020
     FM031000 15007KT P6SM OVC015
     FM031500 19010KT 5SM -RA BR OVC012=

USA.gov is the U.S. government's official web portal to all federal, state and local government web resources and services.